createdAt,value
2019-03-24T00:00:27.908Z,4.40
2019-03-24T00:02:56.308Z,4.40
2019-03-24T00:05:24.650Z,4.40
2019-03-24T00:07:52.994Z,4.40
2019-03-24T00:10:21.363Z,4.40
2019-03-24T00:12:49.705Z,4.30
2019-03-24T00:15:26.185Z,4.30
2019-03-24T00:17:48.261Z,4.30
2019-03-24T00:20:16.610Z,4.30
2019-03-24T00:22:45.002Z,4.30
2019-03-24T00:25:13.440Z,4.20
2019-03-24T00:27:41.757Z,4.20
2019-03-24T00:30:12.494Z,4.20
2019-03-24T00:32:40.872Z,4.20
2019-03-24T00:35:09.319Z,4.10
2019-03-24T00:37:37.732Z,4.00
2019-03-24T00:40:06.535Z,4.00
2019-03-24T00:42:34.861Z,4.00
2019-03-24T00:45:03.435Z,4.00
2019-03-24T00:47:31.776Z,4.00
2019-03-24T00:50:00.192Z,4.00
2019-03-24T00:52:28.777Z,4.00
2019-03-24T00:54:57.082Z,4.00
2019-03-24T00:57:25.435Z,3.90
2019-03-24T00:59:53.870Z,3.90
2019-03-24T01:02:22.189Z,3.90
2019-03-24T01:04:50.506Z,3.80
2019-03-24T01:07:18.886Z,3.80
2019-03-24T01:09:47.250Z,3.70
2019-03-24T01:12:15.605Z,3.80
2019-03-24T01:14:44.016Z,3.70
2019-03-24T01:17:12.364Z,3.80
2019-03-24T01:19:40.671Z,3.60
2019-03-24T01:22:09.049Z,3.70
2019-03-24T01:24:37.385Z,3.70
2019-03-24T01:27:05.683Z,3.70
2019-03-24T01:29:34.098Z,3.60
2019-03-24T01:32:02.469Z,3.60
2019-03-24T01:34:30.787Z,3.60
2019-03-24T01:36:59.174Z,3.60
2019-03-24T01:39:27.522Z,3.60
2019-03-24T01:41:55.863Z,3.60
2019-03-24T01:44:24.240Z,3.60
2019-03-24T01:46:52.581Z,3.60
2019-03-24T01:49:20.977Z,3.50
2019-03-24T01:51:49.353Z,3.50
2019-03-24T01:54:17.793Z,3.50
2019-03-24T01:56:46.200Z,3.60
2019-03-24T01:59:14.547Z,3.50
2019-03-24T02:01:42.847Z,3.50
2019-03-24T02:04:11.278Z,3.50
2019-03-24T02:06:39.628Z,3.40
2019-03-24T02:09:09.351Z,3.40
2019-03-24T02:11:37.728Z,3.40
2019-03-24T02:14:06.040Z,3.40
2019-03-24T02:16:34.439Z,3.40
2019-03-24T02:19:02.754Z,3.40
2019-03-24T02:21:31.488Z,3.40
2019-03-24T02:23:59.871Z,3.40
2019-03-24T02:26:28.194Z,3.40
2019-03-24T02:28:56.494Z,3.40
2019-03-24T02:31:24.904Z,3.40
2019-03-24T02:33:53.247Z,3.40
2019-03-24T02:36:21.572Z,3.40
2019-03-24T02:38:50.156Z,3.40
2019-03-24T02:41:18.503Z,3.30
2019-03-24T02:43:46.816Z,3.40
2019-03-24T02:46:24.279Z,3.40
2019-03-24T02:48:45.338Z,3.40
2019-03-24T02:51:13.664Z,3.40
2019-03-24T02:53:42.102Z,3.40
2019-03-24T02:56:10.504Z,3.30
2019-03-24T02:58:38.841Z,3.30
2019-03-24T03:01:07.235Z,3.30
2019-03-24T03:03:35.599Z,3.30
2019-03-24T03:06:04.108Z,3.30
2019-03-24T03:08:32.902Z,3.20
2019-03-24T03:11:01.251Z,3.20
2019-03-24T03:13:29.585Z,3.20
2019-03-24T03:15:57.992Z,3.10
2019-03-24T03:18:26.315Z,3.20
2019-03-24T03:20:54.668Z,3.20
2019-03-24T03:23:23.010Z,3.20
2019-03-24T03:25:51.373Z,3.20
2019-03-24T03:28:19.721Z,3.20
2019-03-24T03:30:48.074Z,3.20
2019-03-24T03:33:16.537Z,3.20
2019-03-24T03:35:45.007Z,3.20
2019-03-24T03:38:13.334Z,3.20
2019-03-24T03:40:41.670Z,3.20
2019-03-24T03:43:10.031Z,3.10
2019-03-24T03:45:39.485Z,3.10
2019-03-24T03:48:07.952Z,3.10
2019-03-24T03:50:36.299Z,3.10
2019-03-24T03:53:04.755Z,3.10
2019-03-24T03:55:33.154Z,3.10
2019-03-24T03:58:01.535Z,3.10
2019-03-24T04:00:33.913Z,3.10
2019-03-24T04:03:02.605Z,3.10
2019-03-24T04:05:31.016Z,3.10
2019-03-24T04:07:59.784Z,3.00
2019-03-24T04:10:28.216Z,3.10
2019-03-24T04:12:56.681Z,3.00
2019-03-24T04:15:25.064Z,3.00
2019-03-24T04:17:53.454Z,3.00
2019-03-24T04:20:21.772Z,3.00
2019-03-24T04:22:50.114Z,3.00
2019-03-24T04:25:18.499Z,3.00
2019-03-24T04:27:46.837Z,3.00
2019-03-24T04:30:15.453Z,3.00
2019-03-24T04:32:43.804Z,3.00
2019-03-24T04:35:12.299Z,3.00
2019-03-24T04:37:40.765Z,3.00
2019-03-24T04:40:09.267Z,3.00
2019-03-24T04:42:37.589Z,3.00
2019-03-24T04:45:06.462Z,3.00
2019-03-24T04:47:34.806Z,3.00
2019-03-24T04:50:03.539Z,3.00
2019-03-24T04:52:31.854Z,3.00
2019-03-24T04:55:00.334Z,3.00
2019-03-24T04:57:28.759Z,3.00
2019-03-24T04:59:57.107Z,3.00
2019-03-24T05:02:25.427Z,3.00
2019-03-24T05:04:53.827Z,3.00
2019-03-24T05:07:22.226Z,3.10
2019-03-24T05:09:50.750Z,3.00
2019-03-24T05:12:19.196Z,3.10
2019-03-24T05:14:47.528Z,3.00
2019-03-24T05:17:15.911Z,3.00
2019-03-24T05:19:44.243Z,3.00
2019-03-24T05:22:12.568Z,3.00
2019-03-24T05:24:40.879Z,3.10
2019-03-24T05:27:09.254Z,3.10
2019-03-24T05:29:37.603Z,3.10
2019-03-24T05:32:05.954Z,3.10
2019-03-24T05:34:34.346Z,3.10
2019-03-24T05:37:02.691Z,3.10
2019-03-24T05:39:31.039Z,3.10
2019-03-24T05:41:59.415Z,3.20
2019-03-24T05:44:27.736Z,3.30
2019-03-24T05:46:56.066Z,3.30
2019-03-24T05:49:24.454Z,3.30
2019-03-24T05:51:52.776Z,3.40
2019-03-24T05:54:21.098Z,3.40
2019-03-24T05:56:49.516Z,3.40
2019-03-24T05:59:17.850Z,3.40
2019-03-24T06:01:46.170Z,3.50
2019-03-24T06:04:14.593Z,3.40
2019-03-24T06:06:42.903Z,3.50
2019-03-24T06:09:11.292Z,3.60
2019-03-24T06:11:39.710Z,3.60
2019-03-24T06:14:08.022Z,3.70
2019-03-24T06:16:37.951Z,3.80
2019-03-24T06:19:06.498Z,3.80
2019-03-24T06:21:34.858Z,3.90
2019-03-24T06:24:03.190Z,4.00
2019-03-24T06:26:31.575Z,4.00
2019-03-24T06:28:59.912Z,4.10
2019-03-24T06:31:28.263Z,4.20
2019-03-24T06:33:56.663Z,4.20
2019-03-24T06:36:25.009Z,4.30
2019-03-24T06:38:53.353Z,4.40
2019-03-24T06:41:21.700Z,4.50
2019-03-24T06:43:50.126Z,4.60
2019-03-24T06:46:18.448Z,4.60
2019-03-24T06:48:46.784Z,4.70
2019-03-24T06:51:15.219Z,4.90
2019-03-24T06:53:43.542Z,4.90
2019-03-24T06:56:11.839Z,5.00
2019-03-24T06:58:40.252Z,5.00
2019-03-24T07:01:08.588Z,5.20
2019-03-24T07:03:36.929Z,5.20
2019-03-24T07:06:05.336Z,5.30
2019-03-24T07:08:33.720Z,5.40
2019-03-24T07:11:02.043Z,5.40
2019-03-24T07:13:30.481Z,5.50
2019-03-24T07:15:59.177Z,5.60
2019-03-24T07:18:27.527Z,5.70
2019-03-24T07:20:55.838Z,5.70
2019-03-24T07:23:24.193Z,5.70
2019-03-24T07:25:52.579Z,5.70
2019-03-24T07:28:20.902Z,5.70
2019-03-24T07:30:49.256Z,5.80
2019-03-24T07:33:17.713Z,5.90
2019-03-24T07:35:46.044Z,6.10
2019-03-24T07:38:14.366Z,6.20
2019-03-24T07:40:42.790Z,6.40
2019-03-24T07:43:11.125Z,6.40
2019-03-24T07:45:39.498Z,6.50
2019-03-24T07:48:18.283Z,6.50
2019-03-24T07:50:38.052Z,6.70
2019-03-24T07:53:06.385Z,6.90
2019-03-24T07:55:34.728Z,6.90
2019-03-24T07:58:03.042Z,7.00
2019-03-24T08:00:33.202Z,6.90
2019-03-24T08:03:01.638Z,7.00
2019-03-24T08:05:29.980Z,7.00
2019-03-24T08:07:58.378Z,7.00
2019-03-24T08:10:26.713Z,7.10
2019-03-24T08:12:55.161Z,7.20
2019-03-24T08:15:23.765Z,7.10
2019-03-24T08:17:52.159Z,7.20
2019-03-24T08:20:20.503Z,7.30
2019-03-24T08:22:48.890Z,7.30
2019-03-24T08:25:19.073Z,7.30
2019-03-24T08:27:47.361Z,7.30
2019-03-24T08:30:23.442Z,7.40
2019-03-24T08:32:51.811Z,7.50
2019-03-24T08:35:20.206Z,7.50
2019-03-24T08:37:48.540Z,7.70
2019-03-24T08:40:16.872Z,7.60
2019-03-24T08:42:45.269Z,7.70
2019-03-24T08:45:18.311Z,7.80
2019-03-24T08:47:46.632Z,7.80
2019-03-24T08:50:15.049Z,7.90
2019-03-24T08:52:43.363Z,7.90
2019-03-24T08:55:11.731Z,7.90
2019-03-24T08:57:40.083Z,8.00
2019-03-24T09:00:08.420Z,7.90
2019-03-24T09:02:36.825Z,8.00
2019-03-24T09:05:05.261Z,7.90
2019-03-24T09:07:33.624Z,7.90
2019-03-24T09:10:02.100Z,7.90
2019-03-24T09:12:31.298Z,8.00
2019-03-24T09:14:59.784Z,8.10
2019-03-24T09:17:28.219Z,8.00
2019-03-24T09:19:56.565Z,8.00
2019-03-24T09:22:24.883Z,8.00
2019-03-24T09:24:53.284Z,8.00
2019-03-24T09:27:21.649Z,8.00
2019-03-24T09:29:49.969Z,8.10
2019-03-24T09:32:18.342Z,8.20
2019-03-24T09:34:46.714Z,8.20
2019-03-24T09:37:15.054Z,8.30
2019-03-24T09:39:43.425Z,8.30
2019-03-24T09:42:11.744Z,8.40
2019-03-24T09:44:40.140Z,8.40
2019-03-24T09:47:08.465Z,8.50
2019-03-24T09:49:36.819Z,8.50
2019-03-24T09:52:06.779Z,8.40
2019-03-24T09:54:35.092Z,8.50
2019-03-24T09:57:03.500Z,8.50
2019-03-24T09:59:31.939Z,8.60
2019-03-24T10:02:00.246Z,8.60
2019-03-24T10:04:28.602Z,8.70
2019-03-24T10:06:57.033Z,8.70
2019-03-24T10:09:25.379Z,8.70
2019-03-24T10:11:53.729Z,8.60
2019-03-24T10:14:22.345Z,8.60
2019-03-24T10:16:50.713Z,8.70
2019-03-24T10:19:20.353Z,8.70
2019-03-24T10:21:48.764Z,8.90
2019-03-24T10:24:17.172Z,9.10
2019-03-24T10:26:45.582Z,9.20
2019-03-24T10:29:13.951Z,9.20
2019-03-24T10:31:42.678Z,9.30
2019-03-24T10:34:11.236Z,9.30
2019-03-24T10:36:39.870Z,9.20
2019-03-24T10:39:08.230Z,9.30
2019-03-24T10:41:36.629Z,9.40
2019-03-24T10:44:04.961Z,9.40
2019-03-24T10:46:33.316Z,9.40
2019-03-24T10:49:01.733Z,9.40
2019-03-24T10:51:30.053Z,9.40
2019-03-24T10:53:58.389Z,9.50
2019-03-24T10:56:26.795Z,9.50
2019-03-24T10:58:55.153Z,9.30
2019-03-24T11:01:23.491Z,9.20
2019-03-24T11:03:51.859Z,9.40
2019-03-24T11:06:20.177Z,9.30
2019-03-24T11:08:48.515Z,9.30
2019-03-24T11:11:16.921Z,9.40
2019-03-24T11:13:45.252Z,9.30
2019-03-24T11:16:13.589Z,9.40
2019-03-24T11:18:41.995Z,9.50
2019-03-24T11:21:10.334Z,9.50
2019-03-24T11:23:38.667Z,9.20
2019-03-24T11:26:07.030Z,9.30
2019-03-24T11:28:35.388Z,9.40
2019-03-24T11:31:03.764Z,9.40
2019-03-24T11:33:32.090Z,9.50
2019-03-24T11:36:00.994Z,9.60
2019-03-24T11:38:29.307Z,9.60
2019-03-24T11:40:57.736Z,9.60
2019-03-24T11:43:26.079Z,9.60
2019-03-24T11:45:54.439Z,9.40
2019-03-24T11:48:22.895Z,9.50
2019-03-24T11:50:51.316Z,9.50
2019-03-24T11:53:19.675Z,9.50
2019-03-24T11:55:48.062Z,9.70
2019-03-24T11:58:16.358Z,9.70
2019-03-24T12:00:44.712Z,9.70
2019-03-24T12:03:13.099Z,9.70
2019-03-24T12:05:41.431Z,9.70
2019-03-24T12:08:09.797Z,9.60
2019-03-24T12:10:38.160Z,9.50
2019-03-24T12:13:06.497Z,9.30
2019-03-24T12:15:34.902Z,9.40
2019-03-24T12:18:03.491Z,9.40
2019-03-24T12:20:31.838Z,9.20
2019-03-24T12:23:00.240Z,9.10
2019-03-24T12:25:28.569Z,9.00
2019-03-24T12:27:56.919Z,9.00
2019-03-24T12:30:25.261Z,9.10
2019-03-24T12:32:53.629Z,9.10
2019-03-24T12:35:22.024Z,9.10
2019-03-24T12:37:50.339Z,9.20
2019-03-24T12:40:18.701Z,9.30
2019-03-24T12:42:47.120Z,9.40
2019-03-24T12:45:15.562Z,9.50
2019-03-24T12:47:43.918Z,9.60
2019-03-24T12:50:12.643Z,9.60
2019-03-24T12:52:40.973Z,9.50
2019-03-24T12:55:09.613Z,9.50
2019-03-24T12:57:38.017Z,9.60
2019-03-24T13:00:07.745Z,9.60
2019-03-24T13:02:36.097Z,9.60
2019-03-24T13:05:05.675Z,9.60
2019-03-24T13:07:34.002Z,9.50
2019-03-24T13:10:02.340Z,9.50
2019-03-24T13:12:30.724Z,9.70
2019-03-24T13:14:59.089Z,9.70
2019-03-24T13:17:27.451Z,9.80
2019-03-24T13:19:55.821Z,9.90
2019-03-24T13:22:24.157Z,10.00
2019-03-24T13:24:52.503Z,9.90
2019-03-24T13:27:20.905Z,10.00
2019-03-24T13:29:49.259Z,10.00
2019-03-24T13:32:17.606Z,10.00
2019-03-24T13:34:46.026Z,10.00
2019-03-24T13:37:14.364Z,10.10
2019-03-24T13:39:42.755Z,10.20
2019-03-24T13:42:11.213Z,10.10
2019-03-24T13:44:39.547Z,10.10
2019-03-24T13:47:07.928Z,10.00
2019-03-24T13:49:36.260Z,10.20
2019-03-24T13:52:04.669Z,10.20
2019-03-24T13:54:32.977Z,10.20
2019-03-24T13:57:01.338Z,10.30
2019-03-24T13:59:29.750Z,10.40
2019-03-24T14:01:58.209Z,10.50
2019-03-24T14:04:26.639Z,10.50
2019-03-24T14:06:55.061Z,10.70
2019-03-24T14:09:23.405Z,10.80
2019-03-24T14:11:51.837Z,10.80
2019-03-24T14:14:20.156Z,10.60
2019-03-24T14:16:48.565Z,10.70
2019-03-24T14:19:17.001Z,10.60
2019-03-24T14:21:45.362Z,10.50
2019-03-24T14:24:13.682Z,10.40
2019-03-24T14:26:42.094Z,10.50
2019-03-24T14:29:10.431Z,10.50
2019-03-24T14:31:38.792Z,10.40
2019-03-24T14:34:07.155Z,10.60
2019-03-24T14:36:35.477Z,10.60
2019-03-24T14:39:04.952Z,10.50
2019-03-24T14:41:33.310Z,10.40
2019-03-24T14:44:01.654Z,10.30
2019-03-24T14:46:30.066Z,10.30
2019-03-24T14:48:58.425Z,10.40
2019-03-24T14:51:26.753Z,10.10
2019-03-24T14:53:55.197Z,10.10
2019-03-24T14:56:23.540Z,9.90
2019-03-24T14:58:52.158Z,9.90
2019-03-24T15:01:20.717Z,9.80
2019-03-24T15:03:49.229Z,9.70
2019-03-24T15:06:17.792Z,9.70
2019-03-24T15:08:46.369Z,9.60
2019-03-24T15:11:14.713Z,9.40
2019-03-24T15:13:43.078Z,9.40
2019-03-24T15:16:11.462Z,9.50
2019-03-24T15:18:39.850Z,9.40
2019-03-24T15:21:08.297Z,9.30
2019-03-24T15:23:36.738Z,9.40
2019-03-24T15:26:05.201Z,9.40
2019-03-24T15:28:33.953Z,9.30
2019-03-24T15:31:02.366Z,9.30
2019-03-24T15:33:30.708Z,9.30
2019-03-24T15:35:59.028Z,9.20
2019-03-24T15:38:27.469Z,9.10
2019-03-24T15:40:55.783Z,9.00
2019-03-24T15:43:24.145Z,8.90
2019-03-24T15:45:52.972Z,9.00
2019-03-24T15:48:21.410Z,8.90
2019-03-24T15:50:50.160Z,8.90
2019-03-24T15:53:18.782Z,8.80
2019-03-24T15:55:47.346Z,8.70
2019-03-24T15:58:15.839Z,8.70
2019-03-24T16:00:48.625Z,8.70
2019-03-24T16:03:20.108Z,8.70
2019-03-24T16:05:48.912Z,8.70
2019-03-24T16:08:17.404Z,8.70
2019-03-24T16:10:46.022Z,8.60
2019-03-24T16:13:14.810Z,8.50
2019-03-24T16:15:43.198Z,8.50
2019-03-24T16:18:11.694Z,8.30
2019-03-24T16:20:40.096Z,8.30
2019-03-24T16:23:08.435Z,8.30
2019-03-24T16:25:36.882Z,8.20
2019-03-24T16:28:05.264Z,8.20
2019-03-24T16:30:33.709Z,8.10
2019-03-24T16:33:02.128Z,8.10
2019-03-24T16:35:30.513Z,8.00
2019-03-24T16:37:58.870Z,7.90
2019-03-24T16:40:27.214Z,7.90
2019-03-24T16:42:55.650Z,7.90
2019-03-24T16:45:24.072Z,7.80
2019-03-24T16:47:52.421Z,7.70
2019-03-24T16:50:20.799Z,7.70
2019-03-24T16:52:51.134Z,7.60
2019-03-24T16:55:19.429Z,7.60
2019-03-24T16:57:49.879Z,7.50
2019-03-24T17:00:18.426Z,7.50
2019-03-24T17:02:46.778Z,7.40
2019-03-24T17:05:15.207Z,7.40
2019-03-24T17:07:43.601Z,7.30
2019-03-24T17:10:11.956Z,7.20
2019-03-24T17:12:40.379Z,7.20
2019-03-24T17:15:09.385Z,7.10
2019-03-24T17:17:38.184Z,7.10
2019-03-24T17:20:06.569Z,7.10
2019-03-24T17:22:35.137Z,7.00
2019-03-24T17:25:03.621Z,7.00
2019-03-24T17:27:31.976Z,6.90
2019-03-24T17:30:06.038Z,7.00
2019-03-24T17:32:34.756Z,7.00
2019-03-24T17:35:03.228Z,6.90
2019-03-24T17:37:33.968Z,6.80
2019-03-24T17:40:02.592Z,6.70
2019-03-24T17:42:31.007Z,6.80
2019-03-24T17:44:59.352Z,6.70
2019-03-24T17:47:30.280Z,6.60
2019-03-24T17:49:58.714Z,6.60
2019-03-24T17:52:27.111Z,6.40
2019-03-24T17:54:55.458Z,6.40
2019-03-24T17:57:23.799Z,6.40
2019-03-24T17:59:52.158Z,6.40
2019-03-24T18:02:20.634Z,6.40
2019-03-24T18:04:49.862Z,6.40
2019-03-24T18:07:18.296Z,6.30
2019-03-24T18:09:47.959Z,6.20
2019-03-24T18:12:16.275Z,6.10
2019-03-24T18:14:44.614Z,6.00
2019-03-24T18:17:13.077Z,6.00
2019-03-24T18:19:41.479Z,6.00
2019-03-24T18:22:11.824Z,6.00
2019-03-24T18:24:40.268Z,5.90
2019-03-24T18:27:08.776Z,6.00
2019-03-24T18:29:37.852Z,5.90
2019-03-24T18:32:06.266Z,5.90
2019-03-24T18:34:34.676Z,5.90
2019-03-24T18:37:03.381Z,5.90
2019-03-24T18:39:31.767Z,5.80
2019-03-24T18:42:00.172Z,5.80
2019-03-24T18:44:28.733Z,5.70
2019-03-24T18:46:57.178Z,5.70
2019-03-24T18:49:25.648Z,5.70
2019-03-24T18:51:54.132Z,5.60
2019-03-24T18:54:22.615Z,5.70
2019-03-24T18:56:51.077Z,5.60
2019-03-24T18:59:19.532Z,5.60
2019-03-24T19:01:47.918Z,5.50
2019-03-24T19:04:16.264Z,5.50
2019-03-24T19:06:44.728Z,5.40
2019-03-24T19:09:13.039Z,5.40
2019-03-24T19:11:41.474Z,5.40
2019-03-24T19:14:09.808Z,5.40
2019-03-24T19:16:38.183Z,5.30
2019-03-24T19:19:06.545Z,5.30
2019-03-24T19:21:34.988Z,5.30
2019-03-24T19:24:03.545Z,5.30
2019-03-24T19:26:31.892Z,5.20
2019-03-24T19:29:00.223Z,5.20
2019-03-24T19:31:28.942Z,5.20
2019-03-24T19:33:57.315Z,5.20
2019-03-24T19:36:25.704Z,5.20
2019-03-24T19:38:54.503Z,5.10
2019-03-24T19:41:22.822Z,5.10
2019-03-24T19:43:51.237Z,5.20
2019-03-24T19:46:19.595Z,5.10
2019-03-24T19:48:47.974Z,5.10
2019-03-24T19:51:16.422Z,5.00
2019-03-24T19:53:44.817Z,5.00
2019-03-24T19:56:13.173Z,4.90
2019-03-24T19:58:41.568Z,4.90
2019-03-24T20:01:09.933Z,4.90
2019-03-24T20:03:38.319Z,4.90
2019-03-24T20:06:06.774Z,4.90
2019-03-24T20:08:35.140Z,4.90
2019-03-24T20:11:03.544Z,4.90
2019-03-24T20:13:32.019Z,4.80
2019-03-24T20:16:01.477Z,4.80
2019-03-24T20:18:29.860Z,4.80
2019-03-24T20:20:58.301Z,4.70
2019-03-24T20:23:26.682Z,4.70
2019-03-24T20:25:55.054Z,4.80
2019-03-24T20:28:23.443Z,4.70
2019-03-24T20:30:51.806Z,4.80
2019-03-24T20:33:20.161Z,4.70
2019-03-24T20:35:48.644Z,4.70
2019-03-24T20:38:17.018Z,4.70
2019-03-24T20:40:45.343Z,4.60
2019-03-24T20:43:13.778Z,4.60
2019-03-24T20:45:42.117Z,4.60
2019-03-24T20:48:10.466Z,4.50
2019-03-24T20:50:39.002Z,4.50
2019-03-24T20:53:17.666Z,4.50
2019-03-24T20:55:38.035Z,4.60
2019-03-24T20:58:06.532Z,4.60
2019-03-24T21:00:36.206Z,4.60
2019-03-24T21:03:06.341Z,4.60
2019-03-24T21:05:34.864Z,4.60
2019-03-24T21:08:03.384Z,4.60
2019-03-24T21:10:31.822Z,4.60
2019-03-24T21:13:00.157Z,4.50
2019-03-24T21:15:28.523Z,4.60
2019-03-24T21:17:56.952Z,4.50
2019-03-24T21:20:25.449Z,4.50
2019-03-24T21:22:53.848Z,4.50
2019-03-24T21:25:22.219Z,4.50
2019-03-24T21:27:50.549Z,4.50
2019-03-24T21:30:29.897Z,4.50
2019-03-24T21:32:58.248Z,4.40
2019-03-24T21:35:26.627Z,4.50
2019-03-24T21:37:54.974Z,4.50
2019-03-24T21:40:23.409Z,4.50
2019-03-24T21:42:51.761Z,4.40
2019-03-24T21:45:20.157Z,4.40
2019-03-24T21:47:48.512Z,4.30
2019-03-24T21:50:17.007Z,4.30
2019-03-24T21:52:45.452Z,4.30
2019-03-24T21:55:13.977Z,4.30
2019-03-24T21:57:42.572Z,4.30
2019-03-24T22:00:11.188Z,4.30
2019-03-24T22:02:39.551Z,4.30
2019-03-24T22:05:07.990Z,4.20
2019-03-24T22:07:38.454Z,4.20
2019-03-24T22:10:07.037Z,4.20
2019-03-24T22:12:35.388Z,4.20
2019-03-24T22:15:04.309Z,4.20
2019-03-24T22:17:32.644Z,4.20
2019-03-24T22:20:01.050Z,4.20
2019-03-24T22:22:29.438Z,4.20
2019-03-24T22:24:57.901Z,4.20
2019-03-24T22:27:26.378Z,4.10
2019-03-24T22:29:54.810Z,4.10
2019-03-24T22:32:23.266Z,4.10
2019-03-24T22:34:51.635Z,4.10
2019-03-24T22:37:20.288Z,4.10
2019-03-24T22:39:48.908Z,4.10
2019-03-24T22:42:17.250Z,4.10
2019-03-24T22:44:45.707Z,4.20
2019-03-24T22:47:14.030Z,4.20
2019-03-24T22:49:42.387Z,4.10
2019-03-24T22:52:10.935Z,4.20
2019-03-24T22:54:39.530Z,4.10
2019-03-24T22:57:07.938Z,4.10
2019-03-24T22:59:36.630Z,4.10
2019-03-24T23:02:05.156Z,4.10
2019-03-24T23:04:33.778Z,4.10
2019-03-24T23:07:02.693Z,4.10
2019-03-24T23:09:31.740Z,4.10
2019-03-24T23:12:00.258Z,4.00
2019-03-24T23:14:28.611Z,4.00
2019-03-24T23:16:56.953Z,3.80
2019-03-24T23:19:25.403Z,3.80
2019-03-24T23:21:53.864Z,3.70
2019-03-24T23:24:22.409Z,3.70
2019-03-24T23:26:50.905Z,3.60
2019-03-24T23:29:19.217Z,3.70
2019-03-24T23:31:47.610Z,3.60
2019-03-24T23:34:16.040Z,3.60
2019-03-24T23:36:44.448Z,3.60
2019-03-24T23:39:12.805Z,3.60
2019-03-24T23:41:41.323Z,3.60
2019-03-24T23:44:09.713Z,3.60
2019-03-24T23:46:38.154Z,3.50
2019-03-24T23:49:06.574Z,3.50
2019-03-24T23:51:34.943Z,3.60
2019-03-24T23:54:03.461Z,3.60
2019-03-24T23:56:31.951Z,3.60
2019-03-24T23:59:00.280Z,3.60
